首页
METAR-TAF:

METAR-TAF

机场 :

格林斯伯勒, 北卡罗来纳州, 美国

纬度: 36-05-51N, 经度: 079-56-37W, 海拔: 282米

当前天气观测

该预报发布于56分钟前的02:54 UTC
风速7节,风向北转西北
温度 13°C
湿度 54%
气压 1017 hPa
能見度: 16.1公里
天空无云

METAR: KGSO 170254Z 33007KT 10SM CLR 13/04 A3002 RMK AO2 SLP158 T01330044 53024

时间: 23:50 (03:50 UTC)

预报

该预报发布于1小时和56分钟前的01:54 UTC
预报有效从17日的 02点(UTC)到 17日的 24点(UTC)
风速10节,风向西北,有时为17节阵风
能見度: 10公里
少量云层高于3500英尺
从 17日的 0800点(UTC)
风速9节,风向北转西北
能見度: 10公里
天空无云
从 17日的 1400点(UTC)
风速11节,风向北转西北,有时为19节阵风
能見度: 10公里
天空无云
从 17日的 2100点(UTC)
风速7节,风向西北
能見度: 10公里
天空无云

TAF: KGSO 170154Z 1702/1724 32010G17KT P6SM FEW035 FM170800 33009KT P6SM SKC FM171400 33011G19KT P6SM SKC FM172100 32007KT P6SM SKC

超过4000个机场的气象观测和天气预报(METAR&TAF报告)。

可查询的气象台以黄色和红色小点在地图上表示。

将鼠标移到小点上方,可查看气象台名称。

然后点击查看天气观测和预报。

如需切换地图:点击带黑十字的绿色按钮放大地图;点击带横线的绿色按钮缩小地图;或者点击绿色箭头查看邻近地区的地图。


METAR-TAF: